Time;durP1;ratioP1;P1;durP2;ratioP2;P2;SDS_P1;SDS_P2;PMS_P1;PMS_P2;Temp;Humidity;BMP_temperature;BMP_pressure;BME280_temperature;BME280_humidity;BME280_pressure;Samples;Min_cycle;Max_cycle;Signal;HPM_P1;HPM_P2
2023/05/04 00:01:14;;;;;;;19.20;11.27;;;5.30;99.90;;;;;;4991754;28;20093;-71
2023/05/04 00:03:40;;;;;;;17.58;11.35;;;5.30;99.90;;;;;;4991453;28;20054;-71
2023/05/04 00:06:06;;;;;;;23.85;13.00;;;5.30;99.90;;;;;;4984621;28;20093;-71
2023/05/04 00:08:32;;;;;;;21.33;11.88;;;5.30;99.90;;;;;;4991737;28;20093;-71
2023/05/04 00:10:57;;;;;;;17.73;12.07;;;5.30;99.90;;;;;;4989620;28;20042;-72
2023/05/04 00:13:23;;;;;;;20.55;11.30;;;5.30;99.90;;;;;;4987579;28;20405;-71
2023/05/04 00:15:51;;;;;;;19.92;10.80;;;5.20;99.90;;;;;;4991388;28;20062;-71
2023/05/04 00:18:17;;;;;;;18.55;11.45;;;5.20;99.90;;;;;;5005469;28;20050;-72
2023/05/04 00:20:42;;;;;;;20.20;11.65;;;5.10;99.90;;;;;;4991827;28;20557;-71
2023/05/04 00:23:08;;;;;;;22.50;12.57;;;5.10;99.90;;;;;;4986583;28;20130;-71
2023/05/04 00:25:34;;;;;;;16.90;12.40;;;5.00;99.90;;;;;;4981087;28;20042;-71
2023/05/04 00:28:00;;;;;;;14.43;11.30;;;5.00;99.90;;;;;;4993010;28;20491;-71
2023/05/04 00:30:26;;;;;;;15.02;11.27;;;5.00;99.90;;;;;;4978485;28;20052;-71
2023/05/04 00:32:51;;;;;;;18.40;11.68;;;5.00;99.90;;;;;;4978742;28;20122;-71
2023/05/04 00:35:17;;;;;;;19.65;12.13;;;4.90;99.90;;;;;;4990582;28;20471;-71
2023/05/04 00:37:44;;;;;;;17.42;11.43;;;4.90;99.90;;;;;;4991235;28;20046;-71
2023/05/04 00:40:11;;;;;;;22.90;11.97;;;4.90;99.90;;;;;;4990051;28;20050;-71
2023/05/04 00:42:36;;;;;;;19.40;11.73;;;4.80;99.90;;;;;;4992944;28;20463;-71
2023/05/04 00:45:02;;;;;;;21.38;12.75;;;4.90;99.90;;;;;;4992185;28;20104;-71
2023/05/04 00:47:28;;;;;;;20.30;12.85;;;4.80;99.90;;;;;;4988080;28;20100;-71
2023/05/04 00:49:55;;;;;;;34.10;14.45;;;4.80;99.90;;;;;;4993363;28;20456;-71
2023/05/04 00:52:22;;;;;;;15.90;10.68;;;4.80;99.90;;;;;;4993241;28;20047;-71
2023/05/04 00:54:48;;;;;;;17.77;11.65;;;4.80;99.90;;;;;;4992814;28;20078;-71
2023/05/04 00:57:15;;;;;;;19.55;13.23;;;4.90;99.90;;;;;;4990258;28;20494;-71
2023/05/04 00:59:41;;;;;;;20.55;12.13;;;4.90;99.90;;;;;;4988879;28;20042;-71
2023/05/04 01:02:06;;;;;;;22.23;11.57;;;4.80;99.90;;;;;;4992021;28;20042;-71
2023/05/04 01:04:32;;;;;;;20.17;11.35;;;4.90;99.90;;;;;;4986718;28;20093;-71
2023/05/04 01:07:46;;;;;;;18.98;11.82;;;4.90;99.90;;;;;;4989723;28;20475;-71
2023/05/04 01:10:18;;;;;;;24.05;12.93;;;5.00;99.90;;;;;;4988095;28;20051;-71
2023/05/04 01:12:59;;;;;;;16.67;11.68;;;5.00;99.90;;;;;;4993221;28;20607;-71
2023/05/04 01:15:26;;;;;;;18.20;11.98;;;5.00;99.90;;;;;;4982136;28;20038;-71
2023/05/04 01:17:51;;;;;;;24.63;12.93;;;5.00;99.90;;;;;;4978424;28;20422;-71
2023/05/04 01:20:17;;;;;;;19.92;11.55;;;5.00;99.90;;;;;;4993015;28;20034;-71
2023/05/04 01:22:43;;;;;;;16.80;12.48;;;5.00;99.90;;;;;;4987230;28;20557;-71
2023/05/04 01:25:10;;;;;;;18.85;12.80;;;5.10;99.90;;;;;;4992494;28;20046;-71
2023/05/04 01:27:58;;;;;;;21.02;12.75;;;5.10;99.90;;;;;;4991152;28;20455;-71
2023/05/04 01:30:30;;;;;;;18.08;12.48;;;5.10;99.90;;;;;;4978463;28;20060;-71
2023/05/04 01:33:00;;;;;;;27.05;14.38;;;5.10;99.90;;;;;;4991546;28;20046;-71
2023/05/04 01:35:26;;;;;;;20.13;13.23;;;5.10;99.90;;;;;;4990389;28;20176;-71
2023/05/04 01:37:52;;;;;;;24.20;12.68;;;5.10;99.90;;;;;;4986124;28;20704;-71
2023/05/04 01:40:18;;;;;;;27.60;12.90;;;5.10;99.90;;;;;;4991433;28;20069;-71
2023/05/04 01:42:44;;;;;;;19.48;13.13;;;5.10;99.90;;;;;;4990910;28;20042;-71
2023/05/04 01:45:10;;;;;;;18.42;12.90;;;5.10;99.90;;;;;;4991889;28;20470;-71
2023/05/04 01:47:36;;;;;;;20.95;13.35;;;5.10;99.90;;;;;;4988799;28;20050;-71
2023/05/04 01:50:02;;;;;;;18.75;12.70;;;5.10;99.90;;;;;;4992489;28;20050;-71
2023/05/04 01:52:28;;;;;;;20.48;12.73;;;5.10;99.90;;;;;;4990352;28;20422;-70
2023/05/04 01:54:54;;;;;;;19.92;12.45;;;5.10;99.90;;;;;;4988159;28;20052;-71
2023/05/04 01:57:19;;;;;;;21.65;13.18;;;5.10;99.90;;;;;;4991715;28;20050;-71
2023/05/04 01:59:45;;;;;;;15.90;11.38;;;5.10;99.90;;;;;;4982431;28;20073;-71
2023/05/04 02:02:11;;;;;;;24.98;12.50;;;5.10;99.90;;;;;;4982368;28;20470;-71
2023/05/04 02:04:36;;;;;;;21.83;12.75;;;5.10;99.90;;;;;;4983375;28;20124;-71
2023/05/04 02:07:02;;;;;;;22.20;13.55;;;5.10;99.90;;;;;;4992348;28;20101;-71
2023/05/04 02:09:28;;;;;;;18.20;12.65;;;5.10;99.90;;;;;;4991780;28;20046;-71
2023/05/04 02:11:54;;;;;;;21.35;14.20;;;5.20;99.90;;;;;;4992018;28;20058;-71
2023/05/04 02:14:19;;;;;;;28.02;14.15;;;5.20;99.90;;;;;;4980762;28;20129;-71
2023/05/04 02:16:45;;;;;;;26.60;13.65;;;5.20;99.90;;;;;;4990367;28;20038;-71
2023/05/04 02:19:11;;;;;;;21.17;13.88;;;5.20;99.90;;;;;;4989450;28;20069;-71
2023/05/04 02:21:37;;;;;;;28.23;14.05;;;5.20;99.90;;;;;;4989298;28;20427;-71
2023/05/04 02:24:05;;;;;;;32.15;14.40;;;5.20;99.90;;;;;;4990739;28;20035;-71
2023/05/04 02:26:30;;;;;;;19.25;12.88;;;5.20;99.90;;;;;;4989754;28;20053;-71
2023/05/04 02:28:56;;;;;;;23.42;14.23;;;5.20;99.90;;;;;;4986594;28;20039;-71
2023/05/04 02:31:22;;;;;;;21.48;14.30;;;5.20;99.90;;;;;;4979976;28;20104;-71
2023/05/04 02:33:50;;;;;;;22.67;14.80;;;5.20;99.90;;;;;;4976098;28;20519;-71
2023/05/04 02:36:15;;;;;;;19.58;13.57;;;5.20;99.90;;;;;;4990393;28;20115;-71
2023/05/04 02:38:41;;;;;;;26.20;14.68;;;5.20;99.90;;;;;;4988465;28;20050;-71
2023/05/04 02:41:07;;;;;;;21.10;14.00;;;5.20;99.90;;;;;;4990569;28;20107;-71
2023/05/04 02:43:32;;;;;;;21.83;14.18;;;5.20;99.90;;;;;;4989896;28;20050;-71
2023/05/04 02:45:58;;;;;;;28.67;14.93;;;5.10;99.90;;;;;;4990598;28;20057;-71
2023/05/04 02:48:24;;;;;;;24.90;14.27;;;5.10;99.90;;;;;;4983463;28;20050;-71
2023/05/04 02:50:50;;;;;;;28.50;14.07;;;5.10;99.90;;;;;;4983995;28;20051;-71
2023/05/04 02:53:16;;;;;;;22.27;14.13;;;5.10;99.90;;;;;;4989838;28;20056;-71
2023/05/04 02:55:42;;;;;;;26.33;14.70;;;5.10;99.90;;;;;;4990249;28;20042;-71
2023/05/04 02:58:07;;;;;;;21.05;13.60;;;5.10;99.90;;;;;;4986987;28;20054;-72
2023/05/04 03:00:33;;;;;;;24.20;14.73;;;5.10;99.90;;;;;;4987432;28;20054;-71
2023/05/04 03:02:59;;;;;;;28.63;15.57;;;5.10;99.90;;;;;;4988970;28;20046;-71
2023/05/04 03:05:25;;;;;;;21.30;13.98;;;5.10;99.90;;;;;;4985541;28;20050;-71
2023/05/04 03:07:50;;;;;;;25.15;14.65;;;5.10;99.90;;;;;;4985487;28;20740;-71
2023/05/04 03:10:16;;;;;;;27.17;14.65;;;5.00;99.90;;;;;;4989814;28;20104;-71
2023/05/04 03:12:41;;;;;;;27.20;16.20;;;5.00;99.90;;;;;;4988214;28;20407;-71
2023/05/04 03:15:07;;;;;;;27.55;14.60;;;5.10;99.90;;;;;;4980013;28;20046;-71
2023/05/04 03:17:33;;;;;;;21.08;14.82;;;5.10;99.90;;;;;;4988070;28;20446;-71
2023/05/04 03:20:00;;;;;;;21.63;15.45;;;5.10;99.90;;;;;;4990245;28;20046;-71
2023/05/04 03:22:26;;;;;;;20.40;14.00;;;5.10;99.90;;;;;;4977966;28;20518;-71
2023/05/04 03:24:51;;;;;;;26.45;13.88;;;5.10;99.90;;;;;;4989709;28;20046;-71
2023/05/04 03:27:17;;;;;;;21.13;14.35;;;5.10;99.90;;;;;;4985826;28;20042;-71
2023/05/04 03:29:42;;;;;;;30.50;16.52;;;5.10;99.90;;;;;;4979711;28;20098;-71
2023/05/04 03:32:08;;;;;;;18.70;14.25;;;5.10;99.90;;;;;;4983857;28;20069;-71
2023/05/04 03:34:34;;;;;;;28.25;14.15;;;5.10;99.90;;;;;;4988836;28;20047;-71
2023/05/04 03:37:00;;;;;;;20.63;15.25;;;5.10;99.90;;;;;;4987316;28;20047;-71
2023/05/04 03:39:25;;;;;;;20.60;15.15;;;5.10;99.90;;;;;;4989133;28;20434;-71
2023/05/04 03:41:51;;;;;;;26.17;14.43;;;5.10;99.90;;;;;;4982967;28;20042;-71
2023/05/04 03:44:17;;;;;;;24.10;16.02;;;5.20;99.90;;;;;;4984402;28;20825;-71
2023/05/04 03:46:43;;;;;;;27.75;15.50;;;5.10;99.90;;;;;;4983825;28;20420;-71
2023/05/04 03:49:10;;;;;;;25.10;13.65;;;5.10;99.90;;;;;;4990341;28;20101;-71
2023/05/04 03:51:36;;;;;;;23.52;15.30;;;5.10;99.90;;;;;;4976860;28;20039;-71
2023/05/04 03:54:02;;;;;;;37.35;18.25;;;5.10;99.90;;;;;;4988873;28;20053;-71
2023/05/04 03:56:27;;;;;;;20.60;14.95;;;5.10;99.90;;;;;;4987254;28;20041;-71
2023/05/04 03:58:53;;;;;;;27.38;16.02;;;5.10;99.90;;;;;;4977497;28;20046;-71
2023/05/04 04:01:19;;;;;;;25.67;16.30;;;5.10;99.90;;;;;;4979558;28;20054;-71
2023/05/04 04:03:44;;;;;;;28.67;16.23;;;5.20;99.90;;;;;;4987500;28;20057;-71
2023/05/04 04:06:12;;;;;;;29.90;17.02;;;5.20;99.90;;;;;;4981098;28;20053;-70
2023/05/04 04:08:37;;;;;;;26.73;15.80;;;5.20;99.90;;;;;;4989867;28;20092;-70
2023/05/04 04:11:03;;;;;;;26.67;16.00;;;5.30;99.90;;;;;;4984804;28;20069;-71
2023/05/04 04:13:29;;;;;;;27.27;15.68;;;5.30;99.90;;;;;;4986174;28;20038;-71
2023/05/04 04:15:54;;;;;;;32.00;16.60;;;5.30;99.90;;;;;;4979087;28;20360;-71
2023/05/04 04:18:22;;;;;;;25.10;15.52;;;5.30;99.90;;;;;;4987821;28;20459;-71
2023/05/04 04:20:48;;;;;;;24.15;15.88;;;5.30;99.90;;;;;;4988276;28;20050;-71
2023/05/04 04:23:17;;;;;;;26.73;16.15;;;5.30;99.90;;;;;;4976957;28;20046;-70
2023/05/04 04:25:43;;;;;;;21.17;14.45;;;5.30;99.90;;;;;;4981174;28;20060;-70
2023/05/04 04:28:09;;;;;;;23.27;16.08;;;5.30;99.90;;;;;;4988951;28;20043;-70
2023/05/04 04:30:34;;;;;;;23.48;14.63;;;5.30;99.90;;;;;;4989052;28;20213;-71
2023/05/04 04:33:01;;;;;;;26.35;16.70;;;5.30;99.90;;;;;;4988407;28;20122;-70
2023/05/04 04:35:26;;;;;;;38.55;17.17;;;5.40;99.90;;;;;;4989417;28;20396;-70
2023/05/04 04:37:52;;;;;;;26.83;17.20;;;5.40;99.90;;;;;;4988897;28;20056;-70
2023/05/04 04:40:18;;;;;;;23.85;17.73;;;5.40;99.90;;;;;;4981490;28;20042;-71
2023/05/04 04:42:43;;;;;;;27.70;15.93;;;5.40;99.90;;;;;;4989227;28;20102;-70
2023/05/04 04:45:10;;;;;;;23.60;16.23;;;5.40;99.90;;;;;;4992425;28;20051;-71
2023/05/04 04:47:36;;;;;;;28.13;17.10;;;5.40;99.90;;;;;;4991611;28;20082;-70
2023/05/04 04:50:03;;;;;;;22.73;15.77;;;5.40;99.90;;;;;;4992225;28;20797;-70
2023/05/04 04:52:31;;;;;;;28.45;16.00;;;5.40;99.90;;;;;;4988224;28;20050;-70
2023/05/04 04:54:57;;;;;;;27.33;17.52;;;5.50;99.90;;;;;;4990851;28;20109;-70
2023/05/04 04:57:22;;;;;;;28.50;17.17;;;5.50;99.90;;;;;;4987433;28;20843;-70
2023/05/04 04:59:49;;;;;;;25.45;16.17;;;5.50;99.90;;;;;;4984116;28;20085;-70
2023/05/04 05:02:15;;;;;;;22.73;16.77;;;5.60;99.90;;;;;;4992518;28;20086;-71
2023/05/04 05:04:40;;;;;;;24.50;16.48;;;5.60;99.90;;;;;;4991982;28;20415;-70
2023/05/04 05:07:07;;;;;;;26.48;16.58;;;5.70;99.90;;;;;;4992392;28;20491;-70
2023/05/04 05:09:34;;;;;;;27.70;16.20;;;5.70;99.90;;;;;;4987931;28;20055;-71
2023/05/04 05:12:00;;;;;;;29.50;17.45;;;5.70;99.90;;;;;;4986529;28;20072;-71
2023/05/04 05:14:26;;;;;;;23.67;15.98;;;5.80;99.90;;;;;;4990716;28;20515;-71
2023/05/04 05:16:52;;;;;;;26.65;17.33;;;5.80;99.90;;;;;;4983657;28;20491;-70
2023/05/04 05:19:18;;;;;;;23.27;16.10;;;5.90;99.90;;;;;;4993123;28;20052;-70
2023/05/04 05:21:44;;;;;;;26.35;16.42;;;6.00;99.90;;;;;;4987132;28;20054;-71
2023/05/04 05:24:09;;;;;;;30.15;15.52;;;6.00;99.90;;;;;;4990300;28;20042;-71
2023/05/04 05:26:35;;;;;;;33.03;17.48;;;6.00;99.90;;;;;;4991942;28;20050;-71
2023/05/04 05:29:02;;;;;;;29.73;17.42;;;6.10;99.90;;;;;;4992325;28;20157;-71
2023/05/04 05:31:27;;;;;;;30.75;16.50;;;6.20;99.90;;;;;;4989194;28;20061;-71
2023/05/04 05:33:53;;;;;;;25.23;16.45;;;6.20;99.90;;;;;;4987841;28;20811;-71
2023/05/04 05:36:20;;;;;;;25.65;18.73;;;6.20;99.90;;;;;;4989378;28;20464;-71
2023/05/04 05:38:45;;;;;;;27.65;15.00;;;6.30;99.90;;;;;;4989049;28;20038;-71
2023/05/04 05:41:11;;;;;;;32.70;18.13;;;6.30;99.90;;;;;;4990251;28;20104;-71
2023/05/04 05:43:37;;;;;;;31.25;17.27;;;6.40;99.90;;;;;;4991793;28;20042;-71
2023/05/04 05:46:04;;;;;;;28.50;16.85;;;6.40;99.90;;;;;;4991490;28;20072;-71
2023/05/04 05:48:30;;;;;;;29.40;18.35;;;6.40;99.90;;;;;;4973456;28;20042;-70
2023/05/04 05:50:56;;;;;;;30.83;17.77;;;6.50;99.90;;;;;;4987884;28;20057;-71
2023/05/04 05:53:21;;;;;;;22.77;15.38;;;6.60;99.90;;;;;;4986561;28;20038;-71
2023/05/04 05:55:47;;;;;;;27.42;17.60;;;6.60;99.90;;;;;;4990339;28;20050;-71
2023/05/04 05:58:12;;;;;;;31.58;16.63;;;6.70;99.90;;;;;;4979561;28;20492;-71
2023/05/04 06:00:38;;;;;;;29.92;18.33;;;6.70;99.90;;;;;;4987554;28;20385;-71
2023/05/04 06:03:04;;;;;;;26.85;16.98;;;6.70;99.90;;;;;;4990684;28;20053;-71
2023/05/04 06:05:29;;;;;;;28.98;17.33;;;6.80;99.90;;;;;;4988214;28;20491;-71
2023/05/04 06:07:55;;;;;;;27.48;15.73;;;6.90;99.90;;;;;;4980338;28;20042;-71
2023/05/04 06:10:21;;;;;;;25.33;15.52;;;6.90;99.90;;;;;;4983634;28;20046;-71
2023/05/04 06:12:48;;;;;;;22.70;15.48;;;7.00;99.90;;;;;;4987257;28;20050;-71
2023/05/04 06:15:14;;;;;;;27.93;17.30;;;7.00;99.90;;;;;;4963275;28;20451;-71
2023/05/04 06:17:40;;;;;;;35.80;19.13;;;7.10;99.90;;;;;;4988061;28;20286;-71
2023/05/04 06:20:07;;;;;;;23.73;15.85;;;7.10;99.90;;;;;;4988279;28;20042;-71
2023/05/04 06:22:33;;;;;;;47.42;18.38;;;7.20;99.90;;;;;;4989654;28;20046;-71
2023/05/04 06:24:59;;;;;;;23.92;17.23;;;7.30;99.90;;;;;;4984349;28;20042;-71
2023/05/04 06:27:27;;;;;;;27.30;16.60;;;7.40;99.90;;;;;;4989341;28;20423;-71
2023/05/04 06:29:53;;;;;;;31.17;18.67;;;7.50;99.90;;;;;;4987836;28;20134;-71
2023/05/04 06:32:18;;;;;;;20.77;15.50;;;7.50;99.90;;;;;;4988216;28;20050;-72
2023/05/04 06:34:44;;;;;;;26.40;17.33;;;7.60;99.90;;;;;;4988621;28;20105;-71
2023/05/04 06:37:10;;;;;;;28.73;16.10;;;7.70;99.90;;;;;;4983421;28;20126;-71
2023/05/04 06:39:36;;;;;;;29.02;16.48;;;7.80;99.90;;;;;;4985948;28;20053;-71
2023/05/04 06:42:02;;;;;;;28.88;16.30;;;7.80;99.90;;;;;;4987336;28;20059;-71
2023/05/04 06:44:28;;;;;;;35.10;18.02;;;7.80;99.90;;;;;;4977607;28;20048;-71
2023/05/04 06:46:53;;;;;;;26.60;15.52;;;8.00;99.90;;;;;;4985958;28;20046;-71
2023/05/04 06:49:19;;;;;;;23.65;15.98;;;8.10;99.90;;;;;;4988371;28;20050;-72
2023/05/04 06:51:45;;;;;;;24.25;15.55;;;8.30;99.90;;;;;;4987976;28;20042;-72
2023/05/04 06:54:11;;;;;;;26.83;15.80;;;8.40;99.90;;;;;;4989800;28;20046;-72
2023/05/04 06:56:38;;;;;;;24.00;15.68;;;8.40;99.90;;;;;;4989398;28;20392;-71
2023/05/04 06:59:05;;;;;;;23.70;17.27;;;8.50;99.90;;;;;;4985857;28;20093;-71
2023/05/04 07:01:30;;;;;;;22.38;14.25;;;8.60;99.90;;;;;;4987643;28;20041;-71
2023/05/04 07:03:57;;;;;;;22.73;15.48;;;8.60;99.90;;;;;;4988253;28;20054;-72
2023/05/04 07:06:25;;;;;;;23.77;16.00;;;8.70;99.90;;;;;;4986880;28;20145;-72
2023/05/04 07:08:51;;;;;;;34.25;18.05;;;8.70;99.90;;;;;;4981726;28;20050;-72
2023/05/04 07:11:17;;;;;;;36.42;17.70;;;8.80;99.90;;;;;;4979584;28;20137;-73
2023/05/04 07:13:43;;;;;;;27.63;16.83;;;8.90;99.90;;;;;;4986317;28;20117;-73
2023/05/04 07:16:08;;;;;;;42.97;17.13;;;9.00;99.90;;;;;;4983571;28;20100;-73
2023/05/04 07:18:34;;;;;;;28.45;17.15;;;9.10;99.90;;;;;;4988152;28;20042;-73
2023/05/04 07:21:00;;;;;;;24.48;15.63;;;9.20;99.90;;;;;;4989758;28;20057;-73
2023/05/04 07:23:26;;;;;;;26.20;17.48;;;9.30;99.90;;;;;;4988614;28;20050;-72
2023/05/04 07:25:52;;;;;;;30.95;17.35;;;9.40;99.90;;;;;;4974514;28;20049;-73
2023/05/04 07:28:18;;;;;;;23.50;17.48;;;9.50;99.90;;;;;;4988648;28;20042;-73
2023/05/04 07:30:43;;;;;;;26.52;17.05;;;9.50;99.90;;;;;;4981890;28;20042;-73
2023/05/04 07:33:09;;;;;;;35.97;17.38;;;9.60;99.90;;;;;;4985512;28;20481;-73
2023/05/04 07:35:35;;;;;;;22.88;15.60;;;9.60;99.90;;;;;;4981875;28;20059;-73
2023/05/04 07:38:02;;;;;;;29.27;16.60;;;9.80;99.90;;;;;;4986264;28;20053;-73
2023/05/04 07:40:27;;;;;;;27.88;17.08;;;9.90;99.90;;;;;;4988011;28;20056;-73
2023/05/04 07:42:53;;;;;;;23.88;16.38;;;10.00;99.90;;;;;;4985082;28;20403;-73
2023/05/04 07:45:19;;;;;;;23.88;16.10;;;10.10;99.90;;;;;;4983950;28;20057;-70
2023/05/04 07:47:44;;;;;;;27.10;15.98;;;10.20;99.90;;;;;;4987768;28;20050;-70
2023/05/04 07:50:11;;;;;;;31.27;16.27;;;10.30;99.90;;;;;;4981687;28;20050;-70
2023/05/04 07:52:38;;;;;;;21.42;15.50;;;10.40;99.90;;;;;;4985126;28;20050;-70
2023/05/04 07:55:04;;;;;;;23.70;16.20;;;10.40;99.90;;;;;;4984346;28;20097;-70
2023/05/04 07:57:31;;;;;;;26.83;16.35;;;10.60;99.90;;;;;;4987824;28;20046;-70
2023/05/04 07:59:56;;;;;;;23.42;14.85;;;10.80;99.90;;;;;;4989290;28;20050;-72
2023/05/04 08:02:22;;;;;;;23.05;16.10;;;10.90;99.90;;;;;;4988736;28;20038;-72
2023/05/04 08:04:48;;;;;;;21.85;15.68;;;11.00;99.90;;;;;;4989051;28;20054;-71
2023/05/04 08:07:17;;;;;;;20.83;15.18;;;11.10;99.90;;;;;;4984419;28;20034;-72
2023/05/04 08:09:43;;;;;;;27.27;15.63;;;11.30;99.90;;;;;;4988822;28;20045;-72
2023/05/04 08:12:11;;;;;;;22.27;15.10;;;11.50;99.90;;;;;;4987685;28;20380;-72
2023/05/04 08:14:37;;;;;;;27.37;16.77;;;11.70;99.90;;;;;;4981791;28;20094;-71
2023/05/04 08:17:03;;;;;;;29.83;16.63;;;11.80;99.90;;;;;;4993073;28;20074;-72
2023/05/04 08:19:28;;;;;;;23.52;15.65;;;12.00;99.90;;;;;;4991645;28;20034;-71
2023/05/04 08:21:54;;;;;;;30.92;15.38;;;12.20;99.90;;;;;;4991457;28;20077;-72
2023/05/04 08:24:20;;;;;;;32.65;16.52;;;12.40;99.90;;;;;;4991545;28;20042;-72
2023/05/04 08:26:45;;;;;;;28.27;15.77;;;12.40;99.90;;;;;;4992604;28;20173;-72
2023/05/04 08:29:11;;;;;;;23.70;14.93;;;12.60;99.90;;;;;;4992501;28;20528;-72
2023/05/04 08:31:37;;;;;;;22.95;14.25;;;12.80;99.90;;;;;;4991236;28;20042;-72
2023/05/04 08:34:03;;;;;;;22.88;14.75;;;12.90;99.90;;;;;;4990832;28;20050;-72
2023/05/04 08:36:29;;;;;;;24.65;13.88;;;12.90;99.50;;;;;;4992273;28;20488;-72
2023/05/04 08:38:55;;;;;;;28.02;15.52;;;13.00;99.00;;;;;;4992331;28;20436;-72
2023/05/04 08:41:22;;;;;;;22.40;14.27;;;13.30;99.10;;;;;;4990608;28;20053;-72
2023/05/04 08:43:48;;;;;;;19.92;14.95;;;13.50;97.80;;;;;;4979660;28;20384;-72
2023/05/04 08:46:15;;;;;;;16.85;13.77;;;13.40;94.20;;;;;;4989912;28;20086;-72
2023/05/04 08:48:43;;;;;;;30.67;13.85;;;13.60;94.70;;;;;;4992237;28;20526;-72
2023/05/04 08:51:09;;;;;;;15.80;13.38;;;13.60;93.80;;;;;;4983991;28;20042;-72
2023/05/04 08:53:38;;;;;;;25.35;13.43;;;13.80;93.50;;;;;;4990892;28;20049;-72
2023/05/04 08:56:06;;;;;;;;;;;13.90;93.00;;;;;;4992759;28;20120;-72
2023/05/04 08:58:36;;;;;;;24.55;15.55;;;13.80;89.70;;;;;;4990166;28;19922;-72
2023/05/04 09:01:05;;;;;;;28.38;14.80;;;13.90;90.60;;;;;;4977966;28;20047;-72
2023/05/04 09:03:32;;;;;;;22.83;14.05;;;13.90;90.40;;;;;;4992306;28;20046;-72
2023/05/04 09:05:59;;;;;;;14.88;12.77;;;14.00;90.00;;;;;;4991900;28;20622;-72
2023/05/04 09:08:25;;;;;;;22.27;14.30;;;14.10;90.40;;;;;;4987374;28;20042;-72
2023/05/04 09:10:51;;;;;;;17.98;12.77;;;14.30;90.00;;;;;;4991251;28;20042;-72
2023/05/04 09:13:17;;;;;;;18.75;13.85;;;14.40;86.90;;;;;;4983275;28;20053;-72
2023/05/04 09:15:53;;;;;;;25.67;15.20;;;14.40;85.70;;;;;;4988245;28;20443;-72
2023/05/04 09:18:19;;;;;;;21.27;15.23;;;14.30;85.20;;;;;;4991767;28;20038;-73
2023/05/04 09:20:46;;;;;;;26.00;14.27;;;14.40;88.10;;;;;;4973612;28;20042;-71
2023/05/04 09:23:13;;;;;;;27.42;15.15;;;14.50;86.50;;;;;;4989950;28;20050;-72
2023/05/04 09:25:53;;;;;;;24.90;13.55;;;14.60;83.50;;;;;;4990289;28;20046;-72
2023/05/04 09:28:31;;;;;;;25.88;13.80;;;14.70;85.00;;;;;;4989233;28;20045;-72
2023/05/04 09:31:00;;;;;;;21.95;14.65;;;14.70;82.50;;;;;;4990386;28;20050;-72
2023/05/04 09:33:26;;;;;;;29.27;15.60;;;14.80;83.80;;;;;;4990939;28;20046;-72
2023/05/04 09:35:52;;;;;;;29.67;15.27;;;14.90;82.50;;;;;;4989822;28;20112;-72
2023/05/04 09:38:28;;;;;;;31.88;15.27;;;14.90;79.80;;;;;;4991209;28;20042;-72
2023/05/04 09:40:54;;;;;;;20.75;14.35;;;14.90;81.40;;;;;;4991605;28;20046;-72
2023/05/04 09:43:20;;;;;;;27.52;14.80;;;15.00;80.00;;;;;;4973484;28;20050;-72
2023/05/04 09:45:47;;;;;;;22.40;14.80;;;15.10;80.40;;;;;;4985806;28;20444;-72
2023/05/04 09:48:20;;;;;;;21.15;14.40;;;15.20;80.30;;;;;;4988791;28;20054;-72
2023/05/04 09:50:57;;;;;;;20.63;14.32;;;15.20;79.40;;;;;;4991311;28;20081;-72
2023/05/04 09:53:24;;;;;;;20.33;13.77;;;15.20;77.80;;;;;;4991291;28;20050;-72
2023/05/04 09:56:05;;;;;;;19.30;14.48;;;15.30;77.90;;;;;;4978084;28;20411;-72
2023/05/04 09:58:31;;;;;;;20.30;15.18;;;15.40;76.20;;;;;;4990679;28;20050;-73
2023/05/04 10:01:00;;;;;;;27.70;14.63;;;15.40;76.00;;;;;;4990338;28;20121;-72
2023/05/04 10:03:26;;;;;;;22.75;14.57;;;15.40;75.90;;;;;;4983524;28;20046;-72
2023/05/04 10:05:53;;;;;;;25.75;15.20;;;15.50;76.40;;;;;;4989726;28;20081;-72
2023/05/04 10:08:19;;;;;;;28.92;15.15;;;15.70;75.70;;;;;;4990416;28;20053;-72
2023/05/04 10:10:45;;;;;;;28.33;14.82;;;15.80;73.90;;;;;;4990204;28;20064;-72
2023/05/04 10:13:11;;;;;;;22.25;14.35;;;15.90;75.10;;;;;;4988937;28;20133;-72
2023/05/04 10:15:53;;;;;;;22.65;15.77;;;16.00;73.00;;;;;;4990008;28;20472;-72
2023/05/04 10:18:56;;;;;;;24.48;14.02;;;16.20;73.60;;;;;;4979552;28;20419;-72
2023/05/04 10:21:30;;;;;;;27.52;15.52;;;16.40;73.90;;;;;;4989919;28;20136;-72
2023/05/04 10:24:01;;;;;;;26.30;13.57;;;16.50;74.00;;;;;;4984463;28;20519;-72
2023/05/04 10:26:58;;;;;;;16.02;14.05;;;16.70;71.90;;;;;;4988690;28;20057;-72
2023/05/04 10:29:27;;;;;;;19.15;13.68;;;16.90;70.00;;;;;;4990330;28;20051;-72
2023/05/04 10:31:55;;;;;;;21.88;13.10;;;17.10;69.70;;;;;;4980114;28;20500;-72
2023/05/04 10:34:34;;;;;;;20.33;15.00;;;17.30;69.70;;;;;;4989456;28;20050;-72
2023/05/04 10:37:01;;;;;;;26.13;14.32;;;17.30;69.00;;;;;;4989893;28;20046;-72
2023/05/04 10:39:30;;;;;;;22.00;15.18;;;17.50;69.60;;;;;;4985611;28;20507;-72
2023/05/04 10:42:06;;;;;;;22.00;13.82;;;17.30;65.90;;;;;;4984581;28;20050;-73
2023/05/04 10:44:48;;;;;;;15.43;13.68;;;17.20;66.20;;;;;;4989816;28;20138;-72
2023/05/04 10:47:14;;;;;;;21.00;14.65;;;17.20;67.40;;;;;;4990152;28;20567;-72
2023/05/04 10:49:40;;;;;;;23.30;14.30;;;17.40;67.40;;;;;;4989173;28;20050;-73
2023/05/04 10:52:07;;;;;;;24.60;13.57;;;17.50;66.30;;;;;;4990025;28;20066;-73
2023/05/04 10:54:33;;;;;;;21.40;14.63;;;17.60;64.40;;;;;;4988924;28;20089;-73
2023/05/04 10:57:07;;;;;;;22.17;15.25;;;17.60;64.10;;;;;;4988567;28;20498;-72
2023/05/04 10:59:33;;;;;;;17.30;13.15;;;17.60;63.40;;;;;;4988991;28;20072;-72
2023/05/04 11:02:03;;;;;;;20.98;11.82;;;17.60;64.00;;;;;;4988304;28;20491;-72
2023/05/04 11:04:30;;;;;;;19.60;11.57;;;17.70;62.40;;;;;;4983465;28;20038;-72
2023/05/04 11:07:04;;;;;;;21.20;12.57;;;17.70;61.70;;;;;;4988535;28;20170;-72
2023/05/04 11:09:41;;;;;;;18.83;11.20;;;17.80;62.10;;;;;;4989696;28;20511;-72
2023/05/04 11:12:10;;;;;;;20.50;12.40;;;18.10;61.10;;;;;;4987719;28;20042;-72
2023/05/04 11:14:41;;;;;;;23.48;12.88;;;18.20;59.80;;;;;;4989180;28;20054;-73
2023/05/04 11:17:07;;;;;;;19.38;12.65;;;18.30;60.00;;;;;;4988712;28;20058;-73
2023/05/04 11:19:33;;;;;;;21.23;12.32;;;18.40;60.20;;;;;;4989215;28;20081;-73
2023/05/04 11:22:00;;;;;;;18.13;11.30;;;18.20;58.00;;;;;;4987965;28;20046;-73
2023/05/04 11:24:45;;;;;;;17.10;12.07;;;18.20;58.90;;;;;;4985639;28;21939;-73
2023/05/04 11:27:27;;;;;;;18.52;10.82;;;18.20;57.70;;;;;;4981879;28;20049;-73
2023/05/04 11:30:03;;;;;;;14.95;12.18;;;18.10;57.30;;;;;;4983186;28;20506;-73
2023/05/04 11:32:39;;;;;;;18.95;11.38;;;18.10;56.50;;;;;;4987391;28;20045;-74
2023/05/04 11:35:14;;;;;;;14.60;11.25;;;18.20;58.40;;;;;;4985815;28;21336;-73
2023/05/04 11:37:41;;;;;;;18.60;11.30;;;18.30;57.30;;;;;;4988962;28;20042;-73
2023/05/04 11:40:11;;;;;;;18.17;10.95;;;18.40;57.20;;;;;;4989864;28;20114;-73
2023/05/04 11:42:41;;;;;;;12.52;10.23;;;18.60;58.00;;;;;;4983573;28;20123;-73
2023/05/04 11:45:18;;;;;;;13.80;10.30;;;18.70;57.20;;;;;;4982865;28;20047;-73
2023/05/04 11:47:45;;;;;;;17.92;12.00;;;18.80;57.60;;;;;;4987836;28;20922;-73
2023/05/04 11:50:13;;;;;;;18.05;11.20;;;18.90;57.10;;;;;;4987398;28;20500;-73
2023/05/04 11:52:40;;;;;;;19.50;11.93;;;18.80;55.30;;;;;;4982064;28;20043;-73
2023/05/04 11:55:08;;;;;;;19.50;11.13;;;18.50;57.00;;;;;;4982085;28;20054;-73
2023/05/04 11:57:36;;;;;;;18.30;10.98;;;18.70;58.10;;;;;;4981548;28;20058;-73
2023/05/04 12:00:06;;;;;;;18.15;11.02;;;18.90;56.40;;;;;;4992241;28;20050;-73
2023/05/04 12:02:33;;;;;;;20.67;12.30;;;18.80;55.70;;;;;;4991886;28;20108;-73
2023/05/04 12:04:59;;;;;;;24.42;11.15;;;18.90;56.80;;;;;;4986020;28;20077;-73
2023/05/04 12:07:25;;;;;;;19.13;11.27;;;19.00;55.90;;;;;;4991803;28;20045;-73
2023/05/04 12:09:51;;;;;;;16.50;12.75;;;19.10;55.20;;;;;;4991903;28;20046;-72
2023/05/04 12:12:20;;;;;;;17.17;11.40;;;19.00;55.60;;;;;;4991349;28;20090;-73
2023/05/04 12:14:50;;;;;;;18.88;10.05;;;19.00;55.50;;;;;;4979835;28;20047;-73
2023/05/04 12:17:17;;;;;;;25.27;11.52;;;19.20;55.30;;;;;;4992827;28;20064;-72
2023/05/04 12:19:53;;;;;;;13.13;10.43;;;19.40;55.80;;;;;;4991911;28;20056;-72
2023/05/04 12:22:28;;;;;;;15.77;11.10;;;19.70;55.20;;;;;;4985543;28;20082;-72
2023/05/04 12:24:58;;;;;;;19.77;12.90;;;19.90;54.50;;;;;;4990797;28;20072;-73
2023/05/04 12:27:24;;;;;;;12.52;10.20;;;19.70;53.80;;;;;;4990498;28;20054;-73
2023/05/04 12:29:50;;;;;;;22.27;10.25;;;19.70;55.10;;;;;;4978799;28;20109;-73
2023/05/04 12:32:17;;;;;;;14.07;9.73;;;19.90;54.50;;;;;;4989790;28;20054;-73
2023/05/04 12:34:42;;;;;;;16.52;10.93;;;19.80;54.90;;;;;;4984055;28;20422;-73